createdAt,value
2023-05-04T00:01:24.778Z,2.00
2023-05-04T00:03:54.674Z,2.30
2023-05-04T00:06:24.414Z,1.80
2023-05-04T00:08:52.706Z,2.00
2023-05-04T00:11:21.132Z,2.10
2023-05-04T00:13:49.399Z,2.10
2023-05-04T00:16:17.890Z,2.40
2023-05-04T00:18:46.204Z,2.40
2023-05-04T00:21:14.909Z,2.10
2023-05-04T00:23:44.382Z,2.23
2023-05-04T00:26:12.528Z,2.40
2023-05-04T00:28:40.895Z,2.43
2023-05-04T00:31:09.308Z,1.97
2023-05-04T00:33:37.722Z,2.63
2023-05-04T00:36:06.557Z,2.30
2023-05-04T00:38:47.207Z,2.23
2023-05-04T00:41:17.214Z,2.37
2023-05-04T00:43:45.554Z,2.17
2023-05-04T00:46:14.195Z,2.27
2023-05-04T00:48:43.242Z,2.40
2023-05-04T00:51:13.394Z,2.50
2023-05-04T00:53:42.727Z,2.00
2023-05-04T00:56:11.714Z,2.57
2023-05-04T00:58:41.518Z,2.57
2023-05-04T01:01:09.656Z,2.17
2023-05-04T01:03:37.923Z,2.20
2023-05-04T01:06:17.407Z,2.23
2023-05-04T01:08:52.888Z,2.20
2023-05-04T01:11:26.286Z,2.10
2023-05-04T01:13:57.704Z,2.37
2023-05-04T01:16:25.883Z,2.47
2023-05-04T01:18:54.319Z,2.80
2023-05-04T01:21:22.592Z,2.33
2023-05-04T01:23:52.357Z,3.00
2023-05-04T01:26:25.474Z,2.33
2023-05-04T01:28:59.298Z,2.60
2023-05-04T01:31:28.081Z,2.50
2023-05-04T01:33:57.413Z,2.80
2023-05-04T01:36:25.753Z,3.10
2023-05-04T01:38:56.871Z,2.90
2023-05-04T01:41:25.300Z,2.73
2023-05-04T01:43:54.131Z,2.50
2023-05-04T01:46:22.806Z,2.27
2023-05-04T01:48:50.986Z,2.23
2023-05-04T01:51:19.057Z,2.87
2023-05-04T01:53:47.463Z,2.57
2023-05-04T01:56:17.039Z,2.50
2023-05-04T01:58:45.099Z,2.40
2023-05-04T02:01:13.380Z,2.27
2023-05-04T02:03:41.820Z,2.53
2023-05-04T02:06:10.035Z,2.40
2023-05-04T02:08:38.233Z,2.53
2023-05-04T02:11:06.541Z,3.13
2023-05-04T02:13:36.566Z,2.53
2023-05-04T02:16:04.948Z,2.93
2023-05-04T02:18:33.128Z,3.40
2023-05-04T02:21:01.432Z,3.63
2023-05-04T02:23:29.946Z,4.10
2023-05-04T02:25:58.252Z,4.00
2023-05-04T02:28:26.449Z,4.27
2023-05-04T02:30:56.243Z,3.97
2023-05-04T02:33:24.379Z,3.90
2023-05-04T02:35:52.688Z,3.67
2023-05-04T02:38:20.936Z,3.73
2023-05-04T02:40:48.991Z,3.37
2023-05-04T02:43:17.068Z,3.17
2023-05-04T02:45:45.572Z,3.43
2023-05-04T02:48:15.066Z,3.53
2023-05-04T02:50:43.139Z,3.33
2023-05-04T02:53:11.155Z,3.00
2023-05-04T02:55:39.256Z,3.10
2023-05-04T02:58:07.526Z,2.90
2023-05-04T03:00:35.862Z,3.37
2023-05-04T03:03:03.833Z,3.00
2023-05-04T03:05:33.231Z,2.97
2023-05-04T03:08:01.462Z,3.43
2023-05-04T03:10:29.480Z,2.87
2023-05-04T03:12:57.635Z,3.40
2023-05-04T03:15:25.862Z,3.30
2023-05-04T03:17:53.843Z,3.70
2023-05-04T03:20:21.934Z,3.00
2023-05-04T03:22:51.280Z,2.90
2023-05-04T03:25:19.516Z,3.10
2023-05-04T03:27:47.560Z,3.47
2023-05-04T03:30:16.238Z,3.30
2023-05-04T03:32:44.297Z,3.17
2023-05-04T03:35:12.768Z,3.40
2023-05-04T03:37:40.780Z,3.10
2023-05-04T03:40:11.103Z,3.10
2023-05-04T03:42:39.185Z,3.10
2023-05-04T03:45:08.348Z,3.90
2023-05-04T03:47:36.398Z,3.50
2023-05-04T03:50:04.970Z,3.70
2023-05-04T03:52:33.278Z,3.57
2023-05-04T03:55:01.299Z,2.97
2023-05-04T03:57:30.666Z,3.10
2023-05-04T03:59:58.704Z,3.20
2023-05-04T04:02:26.965Z,3.40
2023-05-04T04:04:55.039Z,2.97
2023-05-04T04:07:23.096Z,3.60
2023-05-04T04:09:52.387Z,3.70
2023-05-04T04:12:20.563Z,3.80
2023-05-04T04:14:51.930Z,3.27
2023-05-04T04:17:20.111Z,3.07
2023-05-04T04:19:48.205Z,3.20
2023-05-04T04:22:16.237Z,3.37
2023-05-04T04:24:44.246Z,3.43
2023-05-04T04:27:12.329Z,3.30
2023-05-04T04:29:40.375Z,3.60
2023-05-04T04:32:09.740Z,3.33
2023-05-04T04:34:38.674Z,3.67
2023-05-04T04:37:06.669Z,3.63
2023-05-04T04:39:34.735Z,3.70
2023-05-04T04:42:02.842Z,4.20
2023-05-04T04:44:30.880Z,3.50
2023-05-04T04:46:58.949Z,4.60
2023-05-04T04:49:28.835Z,4.77
2023-05-04T04:51:56.863Z,4.40
2023-05-04T04:54:24.839Z,5.07
2023-05-04T04:56:53.602Z,4.87
2023-05-04T04:59:24.608Z,5.20
2023-05-04T05:01:52.656Z,4.83
2023-05-04T05:04:24.780Z,4.90
2023-05-04T05:06:54.464Z,5.20
2023-05-04T05:09:22.735Z,4.03
2023-05-04T05:11:50.761Z,3.87
2023-05-04T05:14:18.786Z,4.53
2023-05-04T05:16:46.945Z,4.63
2023-05-04T05:19:15.361Z,4.50
2023-05-04T05:21:43.361Z,3.93
2023-05-04T05:24:13.011Z,4.73
2023-05-04T05:26:41.336Z,3.97
2023-05-04T05:29:09.538Z,4.10
2023-05-04T05:31:37.543Z,4.60
2023-05-04T05:34:05.553Z,4.40
2023-05-04T05:36:33.556Z,4.60
2023-05-04T05:39:01.579Z,4.27
2023-05-04T05:41:30.964Z,4.67
2023-05-04T05:43:59.389Z,4.50
2023-05-04T05:46:28.139Z,4.57
2023-05-04T05:48:56.275Z,4.60
2023-05-04T05:51:24.272Z,4.73
2023-05-04T05:53:52.294Z,4.80
2023-05-04T05:56:20.365Z,5.00
2023-05-04T05:58:52.525Z,4.60
2023-05-04T06:01:20.553Z,5.07
2023-05-04T06:03:48.728Z,4.67
2023-05-04T06:06:17.300Z,5.17
2023-05-04T06:08:45.355Z,4.80
2023-05-04T06:11:14.018Z,4.67
2023-05-04T06:13:42.021Z,4.33
2023-05-04T06:16:11.476Z,5.47
2023-05-04T06:18:39.493Z,4.53
2023-05-04T06:21:07.585Z,4.47
2023-05-04T06:23:35.616Z,4.37
2023-05-04T06:26:05.797Z,4.13
2023-05-04T06:28:33.872Z,4.20
2023-05-04T06:31:02.192Z,4.93
2023-05-04T06:33:31.588Z,3.93
2023-05-04T06:35:59.805Z,4.10
2023-05-04T06:38:27.897Z,3.80
2023-05-04T06:40:55.933Z,4.03
2023-05-04T06:43:24.058Z,4.33
2023-05-04T06:45:52.106Z,4.10
2023-05-04T06:48:20.188Z,4.33
2023-05-04T06:50:49.576Z,3.30
2023-05-04T06:53:17.784Z,3.53
2023-05-04T06:55:45.880Z,3.90
2023-05-04T06:58:13.872Z,3.47
2023-05-04T07:00:43.267Z,3.17
2023-05-04T07:03:11.572Z,3.20
2023-05-04T07:05:39.643Z,2.90
2023-05-04T07:08:10.116Z,3.23
2023-05-04T07:10:38.212Z,3.67
2023-05-04T07:13:06.311Z,3.60
2023-05-04T07:15:34.852Z,3.43
2023-05-04T07:18:02.934Z,3.27
2023-05-04T07:20:31.054Z,3.10
2023-05-04T07:22:59.118Z,3.00
2023-05-04T07:25:29.465Z,3.43
2023-05-04T07:27:58.345Z,3.13
2023-05-04T07:30:26.523Z,3.07
2023-05-04T07:32:54.959Z,2.93
2023-05-04T07:35:23.510Z,3.07
2023-05-04T07:37:51.758Z,3.23
2023-05-04T07:40:20.267Z,3.10
2023-05-04T07:42:49.638Z,2.67
2023-05-04T07:45:17.744Z,3.40
2023-05-04T07:47:46.029Z,2.40
2023-05-04T07:50:14.691Z,3.33
2023-05-04T07:52:42.705Z,2.33
2023-05-04T07:55:11.091Z,3.00
2023-05-04T07:57:39.859Z,2.90
2023-05-04T08:00:10.953Z,2.53
2023-05-04T08:02:39.355Z,2.90
2023-05-04T08:05:08.527Z,2.60
2023-05-04T08:07:36.557Z,2.57
2023-05-04T08:10:05.102Z,3.07
2023-05-04T08:12:33.429Z,2.93
2023-05-04T08:15:01.452Z,2.70
2023-05-04T08:17:30.920Z,2.03
2023-05-04T08:19:58.979Z,2.23
2023-05-04T08:22:27.147Z,1.80
2023-05-04T08:24:55.144Z,2.30
2023-05-04T08:27:23.172Z,2.20
2023-05-04T08:29:51.164Z,2.10
2023-05-04T08:32:19.519Z,2.30
2023-05-04T08:34:48.881Z,2.20
2023-05-04T08:37:16.955Z,2.23
2023-05-04T08:39:44.975Z,2.40
2023-05-04T08:42:13.242Z,2.60
2023-05-04T08:44:42.749Z,2.40
2023-05-04T08:47:12.304Z,2.57
2023-05-04T08:49:40.347Z,2.63
2023-05-04T08:52:11.034Z,2.70
2023-05-04T08:54:39.992Z,2.43
2023-05-04T08:57:08.135Z,2.50
2023-05-04T08:59:37.336Z,2.60
2023-05-04T09:02:05.882Z,3.03
2023-05-04T09:04:34.126Z,3.33
2023-05-04T09:07:02.113Z,3.40
2023-05-04T09:09:32.242Z,2.50
2023-05-04T09:12:00.279Z,2.50
2023-05-04T09:14:34.137Z,2.23
2023-05-04T09:17:02.610Z,2.63
2023-05-04T09:19:34.637Z,2.47
2023-05-04T09:22:02.830Z,2.60
2023-05-04T09:24:32.296Z,3.20
2023-05-04T09:27:11.151Z,2.70
2023-05-04T09:29:40.555Z,2.77
2023-05-04T09:32:13.435Z,2.33
2023-05-04T09:34:51.603Z,2.53
2023-05-04T09:37:21.241Z,2.40
2023-05-04T09:39:55.436Z,2.28
2023-05-04T09:42:24.729Z,2.00
2023-05-04T09:45:03.350Z,2.35
2023-05-04T09:47:36.769Z,2.00
2023-05-04T09:50:17.613Z,2.80
2023-05-04T09:52:48.089Z,2.30
2023-05-04T09:55:19.588Z,2.28
2023-05-04T09:57:49.323Z,2.35
2023-05-04T10:00:19.277Z,2.45
2023-05-04T10:02:48.634Z,2.13
2023-05-04T10:05:18.506Z,2.13
2023-05-04T10:07:46.885Z,2.05
2023-05-04T10:10:17.135Z,2.22
2023-05-04T10:12:45.941Z,2.40
2023-05-04T10:15:15.893Z,2.30
2023-05-04T10:18:06.944Z,2.42
2023-05-04T10:20:58.134Z,1.67
2023-05-04T10:23:49.371Z,1.98
2023-05-04T10:26:43.061Z,2.25
2023-05-04T10:29:21.960Z,2.15
2023-05-04T10:31:52.018Z,2.08
2023-05-04T10:34:27.012Z,1.88
2023-05-04T10:36:55.411Z,1.75
2023-05-04T10:39:26.291Z,1.92
2023-05-04T10:42:00.318Z,2.05
2023-05-04T10:44:29.084Z,2.17
2023-05-04T10:47:02.740Z,1.80
2023-05-04T10:49:31.061Z,1.77
2023-05-04T10:52:12.828Z,1.35
2023-05-04T10:54:42.083Z,1.55
2023-05-04T10:57:13.624Z,2.00
2023-05-04T10:59:42.079Z,1.80
2023-05-04T11:02:10.243Z,1.70
2023-05-04T11:04:39.327Z,1.70
2023-05-04T11:07:08.859Z,1.60
2023-05-04T11:09:38.772Z,1.90
2023-05-04T11:12:10.435Z,1.67
2023-05-04T11:14:43.084Z,3.53
2023-05-04T11:17:27.606Z,1.90
2023-05-04T11:19:56.768Z,1.60
2023-05-04T11:22:25.160Z,1.52
2023-05-04T11:24:55.572Z,1.50
2023-05-04T11:27:28.766Z,1.40
2023-05-04T11:29:59.292Z,1.65
2023-05-04T11:32:38.007Z,1.40
2023-05-04T11:35:09.316Z,1.55
2023-05-04T11:37:41.861Z,1.40
2023-05-04T11:40:11.969Z,1.45
2023-05-04T11:42:41.206Z,1.40
2023-05-04T11:45:14.346Z,1.25
2023-05-04T11:47:43.127Z,1.90
2023-05-04T11:50:13.126Z,1.92
2023-05-04T11:52:41.803Z,1.70
2023-05-04T11:55:11.495Z,1.27
2023-05-04T11:57:40.352Z,1.70
2023-05-04T12:00:11.516Z,1.17
2023-05-04T12:02:39.666Z,1.70
2023-05-04T12:05:14.360Z,1.27
2023-05-04T12:07:42.492Z,1.60
2023-05-04T12:10:11.041Z,1.52
2023-05-04T12:12:39.130Z,1.27
2023-05-04T12:15:08.270Z,1.77
2023-05-04T12:17:45.456Z,1.40
2023-05-04T12:20:24.205Z,1.40
2023-05-04T12:22:52.366Z,1.60
2023-05-04T12:25:20.883Z,1.83
2023-05-04T12:27:49.174Z,1.40
2023-05-04T12:30:18.086Z,1.80
2023-05-04T12:32:47.504Z,1.50
2023-05-04T12:35:15.568Z,1.30
2023-05-04T12:37:43.662Z,1.77
2023-05-04T12:40:27.279Z,1.70
2023-05-04T12:42:56.661Z,1.27
2023-05-04T12:45:24.941Z,1.45
2023-05-04T12:47:54.380Z,1.40
2023-05-04T12:50:22.496Z,1.67
2023-05-04T12:52:50.552Z,1.50
2023-05-04T12:55:18.729Z,1.30
2023-05-04T12:57:46.765Z,1.60
2023-05-04T13:00:16.205Z,1.60
2023-05-04T13:02:44.458Z,1.50
2023-05-04T13:05:15.754Z,1.30
2023-05-04T13:07:43.980Z,1.75
2023-05-04T13:10:12.349Z,1.42
2023-05-04T13:12:40.600Z,1.48
2023-05-04T13:15:09.990Z,1.60
2023-05-04T13:17:38.090Z,1.55
2023-05-04T13:20:07.262Z,1.65
2023-05-04T13:22:37.072Z,1.38
2023-05-04T13:25:06.246Z,1.48
2023-05-04T13:27:34.839Z,1.40
2023-05-04T13:30:04.103Z,1.52
2023-05-04T13:32:33.155Z,1.48
2023-05-04T13:35:01.281Z,1.55
2023-05-04T13:37:29.270Z,1.60
2023-05-04T13:39:59.506Z,1.10
2023-05-04T13:42:27.685Z,1.45
2023-05-04T13:44:55.709Z,1.40
2023-05-04T13:47:23.938Z,1.42
2023-05-04T13:49:52.026Z,1.33
2023-05-04T13:52:20.107Z,1.40
2023-05-04T13:54:48.175Z,1.23
2023-05-04T13:57:17.581Z,1.30
2023-05-04T13:59:58.321Z,1.85
2023-05-04T14:02:30.895Z,1.42
2023-05-04T14:04:58.934Z,1.65
2023-05-04T14:07:26.942Z,1.40
2023-05-04T14:09:54.987Z,1.50
2023-05-04T14:12:24.408Z,1.33
2023-05-04T14:14:52.629Z,1.80
2023-05-04T14:17:20.631Z,1.52
2023-05-04T14:19:48.690Z,1.13
2023-05-04T14:22:16.719Z,1.50
2023-05-04T14:24:44.759Z,1.38
2023-05-04T14:27:12.780Z,1.40
2023-05-04T14:29:42.293Z,1.52
2023-05-04T14:32:10.517Z,1.30
2023-05-04T14:34:38.656Z,1.65
2023-05-04T14:37:06.651Z,1.60
2023-05-04T14:39:34.676Z,1.63
2023-05-04T14:42:03.240Z,1.83
2023-05-04T14:44:31.264Z,1.27
2023-05-04T14:47:02.434Z,1.50
2023-05-04T14:52:03.784Z,1.40
2023-05-04T14:54:31.970Z,1.30
2023-05-04T14:57:00.225Z,1.40
2023-05-04T14:59:28.331Z,1.40
2023-05-04T15:01:57.469Z,1.48
2023-05-04T15:04:26.874Z,1.13
2023-05-04T15:06:54.861Z,1.30
2023-05-04T15:09:22.925Z,1.50
2023-05-04T15:11:50.936Z,1.50
2023-05-04T15:14:19.040Z,1.60
2023-05-04T15:16:47.189Z,1.10
2023-05-04T15:19:15.616Z,1.52
2023-05-04T15:21:45.047Z,1.20
2023-05-04T15:24:13.054Z,1.35
2023-05-04T15:26:41.102Z,1.30
2023-05-04T15:29:09.136Z,1.20
2023-05-04T15:31:37.261Z,1.55
2023-05-04T15:34:05.359Z,1.50
2023-05-04T15:36:33.397Z,1.27
2023-05-04T15:39:04.448Z,1.30
2023-05-04T15:41:32.515Z,1.30
2023-05-04T15:44:01.063Z,1.40
2023-05-04T15:46:29.228Z,1.50
2023-05-04T15:48:57.319Z,1.20
2023-05-04T15:51:25.300Z,1.17
2023-05-04T15:53:53.317Z,1.52
2023-05-04T15:56:22.683Z,1.50
2023-05-04T15:58:50.761Z,1.45
2023-05-04T16:01:18.847Z,1.45
2023-05-04T16:03:47.095Z,2.00
2023-05-04T16:06:15.599Z,1.30
2023-05-04T16:08:43.650Z,1.33
2023-05-04T16:11:11.854Z,2.05
2023-05-04T16:13:41.249Z,1.35
2023-05-04T16:16:10.131Z,1.60
2023-05-04T16:18:38.140Z,1.83
2023-05-04T16:21:06.165Z,1.30
2023-05-04T16:23:34.181Z,1.52
2023-05-04T16:26:02.179Z,1.48
2023-05-04T16:28:30.230Z,1.10
2023-05-04T16:30:59.687Z,1.23
2023-05-04T16:33:27.802Z,1.20
2023-05-04T16:35:55.842Z,1.40
2023-05-04T16:38:25.001Z,1.42
2023-05-04T16:40:53.068Z,1.30
2023-05-04T16:43:21.132Z,1.77
2023-05-04T16:45:49.174Z,1.40
2023-05-04T16:48:18.762Z,1.48
2023-05-04T16:50:46.816Z,1.20
2023-05-04T16:53:14.892Z,1.40
2023-05-04T16:55:42.928Z,2.45
2023-05-04T16:58:10.953Z,1.38
2023-05-04T17:00:42.502Z,1.13
2023-05-04T17:03:10.668Z,1.50
2023-05-04T17:05:40.164Z,1.48
2023-05-04T17:08:08.225Z,1.90
2023-05-04T17:10:36.268Z,1.70
2023-05-04T17:13:04.318Z,2.33
2023-05-04T17:15:32.835Z,1.35
2023-05-04T17:18:01.664Z,1.80
2023-05-04T17:20:31.842Z,1.50
2023-05-04T17:23:01.745Z,1.50
2023-05-04T17:25:29.808Z,1.85
2023-05-04T17:27:57.855Z,1.20
2023-05-04T17:30:26.373Z,1.30
2023-05-04T17:32:57.116Z,1.45
2023-05-04T17:35:26.747Z,1.60
2023-05-04T17:37:58.028Z,1.30
2023-05-04T17:40:28.645Z,1.48
2023-05-04T17:42:56.986Z,1.80
2023-05-04T17:45:25.533Z,1.48
2023-05-04T17:47:53.976Z,1.55
2023-05-04T17:50:22.254Z,1.52
2023-05-04T17:52:53.136Z,1.70
2023-05-04T17:55:21.301Z,1.73
2023-05-04T17:57:50.814Z,1.85
2023-05-04T18:00:19.343Z,1.63
2023-05-04T18:02:47.554Z,2.85
2023-05-04T18:05:15.761Z,1.60
2023-05-04T18:07:43.820Z,1.52
2023-05-04T18:10:12.402Z,1.58
2023-05-04T18:12:40.767Z,1.92
2023-05-04T18:15:11.244Z,1.60
2023-05-04T18:17:39.375Z,2.13
2023-05-04T18:20:10.239Z,1.88
2023-05-04T18:22:38.481Z,1.55
2023-05-04T18:25:07.548Z,1.70
2023-05-04T18:27:36.301Z,1.93
2023-05-04T18:30:06.245Z,1.80
2023-05-04T18:32:36.230Z,1.42
2023-05-04T18:35:04.550Z,2.03
2023-05-04T18:37:32.596Z,1.77
2023-05-04T18:40:01.763Z,1.80
2023-05-04T18:42:29.937Z,1.97
2023-05-04T18:44:57.983Z,1.83
2023-05-04T18:47:26.140Z,1.87
2023-05-04T18:49:56.400Z,1.73
2023-05-04T18:52:24.619Z,1.80
2023-05-04T18:54:52.689Z,1.70
2023-05-04T18:57:20.718Z,2.10
2023-05-04T18:59:48.883Z,1.67
2023-05-04T19:02:17.460Z,1.77
2023-05-04T19:04:46.861Z,1.73
2023-05-04T19:07:17.168Z,2.13
2023-05-04T19:09:46.364Z,2.07
2023-05-04T19:12:15.447Z,2.10
2023-05-04T19:14:51.245Z,1.90
2023-05-04T19:17:19.839Z,1.80
2023-05-04T19:19:47.852Z,1.67
2023-05-04T19:22:17.265Z,2.10
2023-05-04T19:24:45.465Z,2.03
2023-05-04T19:27:13.471Z,2.20
2023-05-04T19:29:41.481Z,1.90
2023-05-04T19:32:22.805Z,2.40
2023-05-04T19:34:52.079Z,2.20
2023-05-04T19:37:21.855Z,2.03
2023-05-04T19:39:49.937Z,1.80
2023-05-04T19:42:18.186Z,2.37
2023-05-04T19:44:46.206Z,1.70
2023-05-04T19:47:14.267Z,1.80
2023-05-04T19:49:42.323Z,2.20
2023-05-04T19:52:10.405Z,2.20
2023-05-04T19:54:41.303Z,2.10
2023-05-04T19:57:10.050Z,2.13
2023-05-04T19:59:38.068Z,2.00
2023-05-04T20:02:06.245Z,2.00
2023-05-04T20:04:34.794Z,1.77
2023-05-04T20:07:02.840Z,1.80
2023-05-04T20:09:30.868Z,2.37
2023-05-04T20:12:00.417Z,2.13
2023-05-04T20:14:28.440Z,2.03
2023-05-04T20:16:56.802Z,1.93
2023-05-04T20:19:25.022Z,1.97
2023-05-04T20:21:53.216Z,1.80
2023-05-04T20:24:21.531Z,2.33
2023-05-04T20:26:49.576Z,2.03
2023-05-04T20:29:19.169Z,2.00
2023-05-04T20:31:47.239Z,1.70
2023-05-04T20:34:16.905Z,2.30
2023-05-04T20:36:46.980Z,2.20
2023-05-04T20:39:15.725Z,2.27
2023-05-04T20:41:43.770Z,2.13
2023-05-04T20:44:11.808Z,2.37
2023-05-04T20:46:41.291Z,2.30
2023-05-04T20:49:09.440Z,2.17
2023-05-04T20:51:37.704Z,2.30
2023-05-04T20:54:05.831Z,2.10
2023-05-04T20:56:33.864Z,2.20
2023-05-04T20:59:01.887Z,1.93
2023-05-04T21:01:30.663Z,1.90
2023-05-04T21:04:00.274Z,2.30
2023-05-04T21:06:28.442Z,2.30
2023-05-04T21:08:57.203Z,2.40
2023-05-04T21:11:25.274Z,2.57
2023-05-04T21:13:53.555Z,2.07
2023-05-04T21:16:21.650Z,2.20
2023-05-04T21:18:49.659Z,2.70
2023-05-04T21:21:19.051Z,2.40
2023-05-04T21:23:47.062Z,2.60
2023-05-04T21:26:15.882Z,2.30
2023-05-04T21:28:43.879Z,2.37
2023-05-04T21:31:11.994Z,2.37
2023-05-04T21:33:40.063Z,2.87
2023-05-04T21:36:15.302Z,2.57
2023-05-04T21:38:44.736Z,2.30
2023-05-04T21:41:13.937Z,2.20
2023-05-04T21:43:42.241Z,2.70
2023-05-04T21:46:11.990Z,2.43
2023-05-04T21:48:40.732Z,2.20
2023-05-04T21:51:09.030Z,2.03
2023-05-04T21:53:37.055Z,2.40
2023-05-04T21:56:09.655Z,2.37
2023-05-04T21:58:39.561Z,2.57
2023-05-04T22:01:08.114Z,2.30
2023-05-04T22:03:36.352Z,2.20
2023-05-04T22:06:04.728Z,2.23
2023-05-04T22:08:32.783Z,2.27
2023-05-04T22:11:01.202Z,2.23
2023-05-04T22:13:30.688Z,2.53
2023-05-04T22:15:58.780Z,2.43
2023-05-04T22:18:26.800Z,2.50
2023-05-04T22:20:54.847Z,2.80
2023-05-04T22:23:22.974Z,2.13
2023-05-04T22:25:51.104Z,2.57
2023-05-04T22:28:19.148Z,2.63
2023-05-04T22:30:48.553Z,2.47
2023-05-04T22:33:16.621Z,2.50
2023-05-04T22:35:44.843Z,2.47
2023-05-04T22:38:14.303Z,2.90
2023-05-04T22:40:43.597Z,2.67
2023-05-04T22:43:11.639Z,2.60
2023-05-04T22:45:40.214Z,2.53
2023-05-04T22:48:09.846Z,2.53
2023-05-04T22:50:37.853Z,2.50
2023-05-04T22:53:05.978Z,2.63
2023-05-04T22:55:34.112Z,2.33
2023-05-04T22:58:02.195Z,2.70
2023-05-04T23:00:30.448Z,2.67
2023-05-04T23:02:59.118Z,2.43
2023-05-04T23:05:28.651Z,2.67
2023-05-04T23:07:56.699Z,2.53
2023-05-04T23:10:24.746Z,2.70
2023-05-04T23:12:52.835Z,2.70
2023-05-04T23:15:27.057Z,3.00
2023-05-04T23:17:55.094Z,2.47
2023-05-04T23:20:23.138Z,2.60
2023-05-04T23:22:52.549Z,2.80
2023-05-04T23:25:20.967Z,2.67
2023-05-04T23:27:49.080Z,3.00
2023-05-04T23:30:17.270Z,2.53
2023-05-04T23:32:45.583Z,2.40
2023-05-04T23:35:13.812Z,2.67
2023-05-04T23:37:41.980Z,2.93
2023-05-04T23:40:12.208Z,3.10
2023-05-04T23:42:40.218Z,2.50
2023-05-04T23:45:09.280Z,3.17
2023-05-04T23:47:37.373Z,2.70
2023-05-04T23:50:06.015Z,2.90
2023-05-04T23:52:34.390Z,3.00
2023-05-04T23:55:02.724Z,3.10
2023-05-04T23:57:32.131Z,2.90
